createdAt,value
2018-02-21T00:01:34.042Z,0.70
2018-02-21T00:04:02.267Z,0.70
2018-02-21T00:06:30.460Z,0.70
2018-02-21T00:08:58.648Z,0.80
2018-02-21T00:11:26.826Z,0.80
2018-02-21T00:13:55.005Z,0.80
2018-02-21T00:16:23.173Z,0.80
2018-02-21T00:18:51.347Z,0.80
2018-02-21T00:21:19.542Z,0.90
2018-02-21T00:23:47.710Z,0.80
2018-02-21T00:26:15.909Z,0.80
2018-02-21T00:28:44.099Z,0.80
2018-02-21T00:31:13.044Z,0.80
2018-02-21T00:33:41.274Z,0.80
2018-02-21T00:36:10.231Z,0.80
2018-02-21T00:38:38.404Z,0.80
2018-02-21T00:41:06.588Z,0.80
2018-02-21T00:43:34.791Z,0.80
2018-02-21T00:46:03.718Z,0.80
2018-02-21T00:48:31.896Z,0.80
2018-02-21T00:51:00.900Z,0.80
2018-02-21T00:53:29.101Z,0.80
2018-02-21T00:55:57.279Z,0.80
2018-02-21T00:58:25.482Z,0.90
2018-02-21T01:00:53.663Z,0.90
2018-02-21T01:03:21.838Z,0.90
2018-02-21T01:05:50.011Z,0.90
2018-02-21T01:08:18.214Z,0.90
2018-02-21T01:10:46.406Z,0.90
2018-02-21T01:13:14.577Z,0.90
2018-02-21T01:15:42.882Z,0.90
2018-02-21T01:18:11.062Z,0.90
2018-02-21T01:20:40.032Z,0.90
2018-02-21T01:23:08.208Z,0.80
2018-02-21T01:25:36.418Z,0.80
2018-02-21T01:28:05.374Z,0.90
2018-02-21T01:30:33.561Z,0.80
2018-02-21T01:33:01.739Z,0.90
2018-02-21T01:35:29.930Z,0.80
2018-02-21T01:37:58.873Z,0.80
2018-02-21T01:40:27.053Z,0.70
2018-02-21T01:42:55.272Z,0.80
2018-02-21T01:45:24.209Z,0.70
2018-02-21T01:47:52.386Z,0.70
2018-02-21T01:50:20.602Z,0.70
2018-02-21T01:52:48.824Z,0.70
2018-02-21T01:55:17.003Z,0.80
2018-02-21T01:57:45.209Z,0.80
2018-02-21T02:00:14.265Z,0.80
2018-02-21T02:02:42.442Z,0.80
2018-02-21T02:05:10.627Z,0.80
2018-02-21T02:07:38.822Z,0.80
2018-02-21T02:10:07.024Z,0.80
2018-02-21T02:12:36.004Z,0.90
2018-02-21T02:15:04.166Z,0.80
2018-02-21T02:17:32.362Z,0.90
2018-02-21T02:20:00.578Z,0.90
2018-02-21T02:22:28.739Z,0.80
2018-02-21T02:24:56.911Z,0.80
2018-02-21T02:27:25.876Z,0.80
2018-02-21T02:29:54.060Z,0.80
2018-02-21T02:32:23.015Z,0.80
2018-02-21T02:34:51.176Z,0.80
2018-02-21T02:37:19.342Z,0.80
2018-02-21T02:40:07.110Z,0.80
2018-02-21T02:42:35.316Z,0.80
2018-02-21T02:45:04.325Z,0.80
2018-02-21T02:47:32.499Z,0.80
2018-02-21T02:50:00.679Z,0.80
2018-02-21T02:52:28.853Z,0.80
2018-02-21T02:54:57.014Z,0.80
2018-02-21T02:57:25.967Z,0.80
2018-02-21T02:59:54.192Z,0.70
2018-02-21T03:02:22.401Z,0.80
2018-02-21T03:04:50.574Z,0.80
2018-02-21T03:07:18.756Z,0.80
2018-02-21T03:09:47.937Z,0.80
2018-02-21T03:12:16.108Z,0.80
2018-02-21T03:14:44.290Z,0.80
2018-02-21T03:17:12.473Z,0.90
2018-02-21T03:19:40.639Z,0.90
2018-02-21T03:22:08.810Z,0.90
2018-02-21T03:24:37.029Z,0.90
2018-02-21T03:27:05.262Z,0.90
2018-02-21T03:29:33.457Z,0.90
2018-02-21T03:32:01.626Z,0.90
2018-02-21T03:34:29.792Z,0.90
2018-02-21T03:36:58.782Z,0.90
2018-02-21T03:39:26.943Z,0.90
2018-02-21T03:41:55.129Z,0.90
2018-02-21T03:44:23.322Z,0.90
2018-02-21T03:46:51.506Z,0.90
2018-02-21T03:49:19.672Z,0.90
2018-02-21T03:51:47.906Z,1.00
2018-02-21T03:54:16.122Z,0.90
2018-02-21T03:56:44.283Z,0.90
2018-02-21T03:59:12.454Z,0.90
2018-02-21T04:01:40.613Z,0.90
2018-02-21T04:04:08.984Z,0.90
2018-02-21T04:06:37.162Z,0.90
2018-02-21T04:09:05.371Z,0.90
2018-02-21T04:11:33.538Z,0.90
2018-02-21T04:14:01.715Z,0.80
2018-02-21T04:16:29.879Z,0.80
2018-02-21T04:19:00.862Z,0.80
2018-02-21T04:21:29.072Z,0.80
2018-02-21T04:23:57.244Z,0.80
2018-02-21T04:26:25.418Z,0.80
2018-02-21T04:28:53.591Z,0.80
2018-02-21T04:31:21.765Z,0.80
2018-02-21T04:33:50.687Z,0.80
2018-02-21T04:36:18.881Z,0.80
2018-02-21T04:38:48.062Z,0.80
2018-02-21T04:41:16.269Z,0.80
2018-02-21T04:43:44.434Z,0.90
2018-02-21T04:46:12.657Z,0.80
2018-02-21T04:48:40.833Z,0.80
2018-02-21T04:51:09.029Z,0.90
2018-02-21T04:53:37.233Z,0.80
2018-02-21T04:56:24.017Z,0.80
2018-02-21T04:58:52.919Z,0.80
2018-02-21T05:01:21.148Z,0.80
2018-02-21T05:03:50.083Z,0.80
2018-02-21T05:06:18.253Z,0.70
2018-02-21T05:08:46.429Z,0.80
2018-02-21T05:11:14.587Z,0.80
2018-02-21T05:13:42.757Z,0.80
2018-02-21T05:16:10.933Z,0.80
2018-02-21T05:18:39.917Z,0.80
2018-02-21T05:21:08.094Z,0.80
2018-02-21T05:23:36.262Z,0.80
2018-02-21T05:26:04.475Z,0.80
2018-02-21T05:28:32.675Z,0.80
2018-02-21T05:31:00.843Z,0.90
2018-02-21T05:33:29.016Z,0.90
2018-02-21T05:35:57.199Z,0.90
2018-02-21T05:38:25.365Z,0.90
2018-02-21T05:40:53.543Z,0.90
2018-02-21T05:43:21.719Z,0.90
2018-02-21T05:45:49.882Z,0.90
2018-02-21T05:48:18.053Z,0.90
2018-02-21T05:50:46.225Z,0.90
2018-02-21T05:53:16.044Z,0.90
2018-02-21T05:55:44.239Z,0.90
2018-02-21T05:58:12.407Z,1.00
2018-02-21T06:00:40.589Z,0.90
2018-02-21T06:03:08.761Z,1.00
2018-02-21T06:05:36.941Z,1.00
2018-02-21T06:08:05.101Z,1.00
2018-02-21T06:10:33.266Z,1.00
2018-02-21T06:13:01.446Z,1.00
2018-02-21T06:15:29.619Z,1.10
2018-02-21T06:17:57.786Z,1.00
2018-02-21T06:20:25.984Z,1.00
2018-02-21T06:22:54.151Z,1.00
2018-02-21T06:25:22.327Z,1.00
2018-02-21T06:27:50.787Z,1.00
2018-02-21T06:30:18.987Z,1.10
2018-02-21T06:32:47.175Z,1.10
2018-02-21T06:35:15.330Z,1.20
2018-02-21T06:37:43.559Z,1.20
2018-02-21T06:40:11.730Z,1.40
2018-02-21T06:42:39.899Z,1.40
2018-02-21T06:45:08.094Z,1.50
2018-02-21T06:47:36.318Z,1.50
2018-02-21T06:50:05.312Z,1.50
2018-02-21T06:52:33.511Z,1.40
2018-02-21T06:55:02.516Z,1.50
2018-02-21T06:57:30.702Z,1.40
2018-02-21T06:59:58.926Z,1.50
2018-02-21T07:02:35.822Z,1.50
2018-02-21T07:05:04.789Z,1.60
2018-02-21T07:07:32.966Z,1.50
2018-02-21T07:10:01.138Z,1.60
2018-02-21T07:12:29.303Z,1.60
2018-02-21T07:14:57.491Z,1.60
2018-02-21T07:17:25.711Z,1.60
2018-02-21T07:19:53.925Z,1.70
2018-02-21T07:22:22.137Z,1.70
2018-02-21T07:24:51.066Z,1.70
2018-02-21T07:27:19.278Z,1.70
2018-02-21T07:29:47.527Z,1.70
2018-02-21T07:32:15.707Z,1.80
2018-02-21T07:34:43.875Z,1.80
2018-02-21T07:37:12.061Z,1.80
2018-02-21T07:39:40.262Z,1.90
2018-02-21T07:42:08.462Z,1.90
2018-02-21T07:44:37.429Z,1.90
2018-02-21T07:47:05.595Z,1.90
2018-02-21T07:49:33.765Z,1.90
2018-02-21T07:52:02.003Z,1.90
2018-02-21T07:54:30.193Z,2.00
2018-02-21T07:56:58.357Z,2.00
2018-02-21T07:59:26.584Z,2.10
2018-02-21T08:01:54.748Z,2.10
2018-02-21T08:04:22.936Z,2.10
2018-02-21T08:06:51.154Z,2.10
2018-02-21T08:09:19.321Z,2.20
2018-02-21T08:11:47.488Z,2.20
2018-02-21T08:14:16.430Z,2.20
2018-02-21T08:16:44.635Z,2.20
2018-02-21T08:19:12.824Z,2.30
2018-02-21T08:21:41.784Z,2.40
2018-02-21T08:24:09.992Z,2.30
2018-02-21T08:26:38.992Z,2.40
2018-02-21T08:29:07.937Z,2.50
2018-02-21T08:31:36.143Z,2.50
2018-02-21T08:34:05.095Z,2.60
2018-02-21T08:36:33.407Z,2.50
2018-02-21T08:39:02.368Z,2.60
2018-02-21T08:41:30.562Z,2.60
2018-02-21T08:43:58.813Z,2.70
2018-02-21T08:46:27.007Z,2.70
2018-02-21T08:48:55.248Z,2.60
2018-02-21T08:51:23.466Z,2.60
2018-02-21T08:53:51.725Z,2.60
2018-02-21T08:56:19.945Z,2.70
2018-02-21T08:58:48.946Z,2.80
2018-02-21T09:01:17.165Z,2.80
2018-02-21T09:03:45.392Z,2.90
2018-02-21T09:06:14.361Z,3.10
2018-02-21T09:08:42.583Z,3.10
2018-02-21T09:11:10.796Z,3.20
2018-02-21T09:13:38.999Z,3.40
2018-02-21T09:16:07.993Z,3.70
2018-02-21T09:18:36.236Z,3.60
2018-02-21T09:21:04.441Z,3.70
2018-02-21T09:23:32.642Z,3.90
2018-02-21T09:26:00.872Z,4.10
2018-02-21T09:28:29.113Z,4.30
2018-02-21T09:30:57.319Z,4.60
2018-02-21T09:33:25.576Z,4.70
2018-02-21T09:35:53.758Z,4.80
2018-02-21T09:38:21.964Z,4.80
2018-02-21T09:40:50.215Z,4.80
2018-02-21T09:43:18.389Z,4.70
2018-02-21T09:45:46.585Z,4.70
2018-02-21T09:48:14.766Z,4.70
2018-02-21T09:50:43.013Z,4.50
2018-02-21T09:53:11.273Z,4.40
2018-02-21T09:55:39.451Z,4.20
2018-02-21T09:58:07.657Z,4.20
2018-02-21T10:00:35.845Z,4.10
2018-02-21T10:03:04.024Z,4.00
2018-02-21T10:05:32.209Z,3.90
2018-02-21T10:08:01.174Z,3.80
2018-02-21T10:10:29.348Z,3.80
2018-02-21T10:12:57.517Z,3.60
2018-02-21T10:15:25.759Z,3.30
2018-02-21T10:17:53.993Z,3.20
2018-02-21T10:20:22.279Z,3.10
2018-02-21T10:22:51.265Z,3.00
2018-02-21T10:25:20.225Z,3.20
2018-02-21T10:27:48.408Z,3.20
2018-02-21T10:30:16.620Z,3.50
2018-02-21T10:32:45.557Z,3.70
2018-02-21T10:35:13.762Z,3.70
2018-02-21T10:37:41.938Z,3.80
2018-02-21T10:40:10.098Z,3.90
2018-02-21T10:42:38.274Z,4.00
2018-02-21T10:45:06.438Z,4.10
2018-02-21T10:47:34.605Z,4.00
2018-02-21T10:50:02.807Z,4.10
2018-02-21T10:52:30.977Z,4.10
2018-02-21T10:54:59.155Z,4.20
2018-02-21T10:57:27.320Z,4.40
2018-02-21T10:59:55.496Z,4.40
2018-02-21T11:02:23.666Z,4.50
2018-02-21T11:04:51.855Z,4.70
2018-02-21T11:07:20.019Z,4.90
2018-02-21T11:09:48.197Z,5.00
2018-02-21T11:12:16.381Z,5.00
2018-02-21T11:14:44.562Z,5.10
2018-02-21T11:17:12.719Z,5.20
2018-02-21T11:19:40.895Z,5.50
2018-02-21T11:22:09.064Z,5.90
2018-02-21T11:24:37.282Z,5.90
2018-02-21T11:27:05.497Z,5.80
2018-02-21T11:29:33.686Z,5.80
2018-02-21T11:32:01.854Z,5.90
2018-02-21T11:34:30.052Z,5.80
2018-02-21T11:36:58.254Z,5.70
2018-02-21T11:39:27.207Z,6.00
2018-02-21T11:41:55.377Z,5.90
2018-02-21T11:44:23.542Z,6.50
2018-02-21T11:46:51.749Z,6.70
2018-02-21T11:49:19.926Z,7.30
2018-02-21T11:51:48.101Z,7.80
2018-02-21T11:54:16.259Z,8.20
2018-02-21T11:56:44.424Z,8.80
2018-02-21T11:59:12.605Z,10.10
2018-02-21T12:01:40.817Z,12.80
2018-02-21T12:04:09.757Z,14.10
2018-02-21T12:06:37.937Z,14.00
2018-02-21T12:09:06.124Z,14.70
2018-02-21T12:11:34.320Z,14.50
2018-02-21T12:14:03.274Z,11.80
2018-02-21T12:16:31.477Z,11.70
2018-02-21T12:18:59.652Z,10.70
2018-02-21T12:21:27.858Z,9.60
2018-02-21T12:23:56.803Z,8.40
2018-02-21T12:26:24.958Z,8.40
2018-02-21T12:28:53.228Z,7.90
2018-02-21T12:31:21.434Z,7.60
2018-02-21T12:33:49.590Z,7.20
2018-02-21T12:36:17.757Z,6.90
2018-02-21T12:38:51.457Z,6.60
2018-02-21T12:41:25.133Z,6.50
2018-02-21T12:43:54.095Z,5.90
2018-02-21T12:46:22.301Z,5.80
2018-02-21T12:48:50.474Z,5.60
2018-02-21T12:51:19.417Z,5.60
2018-02-21T12:53:47.588Z,5.50
2018-02-21T12:56:15.769Z,5.50
2018-02-21T12:58:43.930Z,5.40
2018-02-21T13:01:12.126Z,5.20
2018-02-21T13:03:40.294Z,5.10
2018-02-21T13:06:08.462Z,4.90
2018-02-21T13:08:36.662Z,4.80
2018-02-21T13:11:04.825Z,4.80
2018-02-21T13:13:33.003Z,4.90
2018-02-21T13:16:01.166Z,4.90
2018-02-21T13:18:29.330Z,4.90
2018-02-21T13:20:57.521Z,5.00
2018-02-21T13:23:25.722Z,5.00
2018-02-21T13:25:54.688Z,5.10
2018-02-21T13:28:22.864Z,5.00
2018-02-21T13:30:51.035Z,5.00
2018-02-21T13:33:19.214Z,4.90
2018-02-21T13:35:47.388Z,4.80
2018-02-21T13:38:15.558Z,4.90
2018-02-21T13:40:43.731Z,4.90
2018-02-21T13:43:11.898Z,5.00
2018-02-21T13:45:40.095Z,5.10
2018-02-21T13:48:08.280Z,5.10
2018-02-21T13:50:37.219Z,5.00
2018-02-21T13:53:05.450Z,5.00
2018-02-21T13:55:34.423Z,5.00
2018-02-21T13:58:02.597Z,4.90
2018-02-21T14:00:30.764Z,4.90
2018-02-21T14:02:58.965Z,4.80
2018-02-21T14:05:27.930Z,4.80
2018-02-21T14:07:56.120Z,4.70
2018-02-21T14:10:24.307Z,4.80
2018-02-21T14:12:53.294Z,4.80
2018-02-21T14:15:21.492Z,4.80
2018-02-21T14:17:50.450Z,4.80
2018-02-21T14:20:18.657Z,4.80
2018-02-21T14:22:47.620Z,4.80
2018-02-21T14:25:15.827Z,4.70
2018-02-21T14:27:44.794Z,4.70
2018-02-21T14:30:12.984Z,4.60
2018-02-21T14:32:41.946Z,4.60
2018-02-21T14:35:10.123Z,4.60
2018-02-21T14:37:38.325Z,4.70
2018-02-21T14:40:07.332Z,4.70
2018-02-21T14:42:36.294Z,4.70
2018-02-21T14:45:04.492Z,4.60
2018-02-21T14:47:33.492Z,4.60
2018-02-21T14:50:02.436Z,4.50
2018-02-21T14:52:30.650Z,4.50
2018-02-21T14:54:59.595Z,4.40
2018-02-21T14:57:27.810Z,4.30
2018-02-21T14:59:56.008Z,4.30
2018-02-21T15:46:04.484Z,4.10
2018-02-21T15:48:32.699Z,3.80
2018-02-21T15:51:01.634Z,3.70
2018-02-21T15:53:29.808Z,3.70
2018-02-21T15:55:57.995Z,3.70
2018-02-21T15:58:26.178Z,3.70
2018-02-21T16:00:54.357Z,3.60
2018-02-21T16:03:22.530Z,3.60
2018-02-21T16:05:50.707Z,3.60
2018-02-21T16:08:18.867Z,3.60
2018-02-21T16:10:47.031Z,3.60
2018-02-21T16:13:15.191Z,3.60
2018-02-21T16:15:43.362Z,3.60
2018-02-21T16:18:11.572Z,3.50
2018-02-21T16:20:39.757Z,3.50
2018-02-21T16:23:07.931Z,3.60
2018-02-21T16:25:36.114Z,3.60
2018-02-21T16:28:04.278Z,3.60
2018-02-21T16:30:32.479Z,3.70
2018-02-21T16:33:01.426Z,3.70
2018-02-21T16:35:29.618Z,3.60
2018-02-21T16:37:57.782Z,3.70
2018-02-21T16:40:25.949Z,3.60
2018-02-21T16:42:54.160Z,3.60
2018-02-21T16:45:23.130Z,3.50
2018-02-21T16:47:51.349Z,3.40
2018-02-21T16:50:19.546Z,3.50
2018-02-21T16:52:47.789Z,3.50
2018-02-21T16:55:16.775Z,3.50
2018-02-21T16:57:45.731Z,3.40
2018-02-21T17:00:13.907Z,3.40
2018-02-21T17:02:42.133Z,3.40
2018-02-21T17:05:10.323Z,3.40
2018-02-21T17:07:38.497Z,3.40
2018-02-21T17:10:06.678Z,3.30
2018-02-21T17:12:34.882Z,3.30
2018-02-21T17:15:03.059Z,3.30
2018-02-21T17:17:31.278Z,3.30
2018-02-21T17:20:00.227Z,3.30
2018-02-21T17:22:28.440Z,3.30
2018-02-21T17:24:57.474Z,3.30
2018-02-21T17:27:25.659Z,3.20
2018-02-21T17:29:53.866Z,3.30
2018-02-21T17:32:22.057Z,3.30
2018-02-21T17:34:51.010Z,3.30
2018-02-21T17:37:19.187Z,3.20
2018-02-21T17:39:47.384Z,3.20
2018-02-21T17:42:15.556Z,3.20
2018-02-21T17:44:43.740Z,3.20
2018-02-21T17:47:11.960Z,3.20
2018-02-21T17:49:40.144Z,3.20
2018-02-21T17:52:08.337Z,3.10
2018-02-21T17:54:36.567Z,3.10
2018-02-21T17:57:04.765Z,3.10
2018-02-21T17:59:32.958Z,3.00
2018-02-21T18:02:01.141Z,3.10
2018-02-21T18:04:29.344Z,3.00
2018-02-21T18:06:57.521Z,3.00
2018-02-21T18:09:26.499Z,2.90
2018-02-21T18:11:54.691Z,2.80
2018-02-21T18:14:23.658Z,2.80
2018-02-21T18:16:51.851Z,2.80
2018-02-21T18:19:20.108Z,2.80
2018-02-21T18:21:50.578Z,2.80
2018-02-21T18:24:19.521Z,2.80
2018-02-21T18:26:47.709Z,2.70
2018-02-21T18:29:15.893Z,2.80
2018-02-21T18:31:44.092Z,2.70
2018-02-21T18:34:13.052Z,2.70
2018-02-21T18:36:41.331Z,2.60
2018-02-21T18:39:09.531Z,2.70
2018-02-21T18:41:38.491Z,2.60
2018-02-21T18:44:06.686Z,2.50
2018-02-21T18:46:34.907Z,2.50
2018-02-21T18:49:03.125Z,2.50
2018-02-21T18:51:31.316Z,2.50
2018-02-21T18:54:00.254Z,2.40
2018-02-21T18:56:28.447Z,2.40
2018-02-21T18:58:56.624Z,2.40
2018-02-21T19:01:24.849Z,2.30
2018-02-21T19:03:53.827Z,2.20
2018-02-21T19:06:22.785Z,2.20
2018-02-21T19:08:50.986Z,2.20
2018-02-21T19:11:19.252Z,2.20
2018-02-21T19:13:47.525Z,2.20
2018-02-21T19:16:15.755Z,2.10
2018-02-21T19:18:43.940Z,2.10
2018-02-21T19:21:12.163Z,2.10
2018-02-21T19:23:40.406Z,2.10
2018-02-21T19:26:08.640Z,2.20
2018-02-21T19:28:37.623Z,2.20
2018-02-21T19:31:06.622Z,2.20
2018-02-21T19:33:35.643Z,2.20
2018-02-21T19:36:03.826Z,2.10
2018-02-21T19:38:32.025Z,2.20
2018-02-21T19:41:00.221Z,2.20
2018-02-21T19:43:28.440Z,2.20
2018-02-21T19:45:56.621Z,2.20
2018-02-21T19:48:24.813Z,2.20
2018-02-21T19:50:53.003Z,2.20
2018-02-21T19:53:21.207Z,2.30
2018-02-21T19:55:50.148Z,2.20
2018-02-21T19:58:18.358Z,2.20
2018-02-21T20:00:46.536Z,2.20
2018-02-21T20:03:14.709Z,2.20
2018-02-21T20:05:42.887Z,2.20
2018-02-21T20:08:11.070Z,2.20
2018-02-21T20:10:39.242Z,2.20
2018-02-21T20:13:07.428Z,2.20
2018-02-21T20:15:36.380Z,2.10
2018-02-21T20:18:04.583Z,2.10
2018-02-21T20:20:32.777Z,2.10
2018-02-21T20:23:01.750Z,2.00
2018-02-21T20:25:29.923Z,2.00
2018-02-21T20:27:58.133Z,2.00
2018-02-21T20:30:26.316Z,2.00
2018-02-21T20:32:54.487Z,1.90
2018-02-21T20:35:22.679Z,1.80
2018-02-21T20:37:50.868Z,1.80
2018-02-21T20:40:19.078Z,1.80
2018-02-21T20:42:47.310Z,1.80
2018-02-21T20:45:15.518Z,1.70
2018-02-21T20:47:43.726Z,1.70
2018-02-21T20:50:11.933Z,1.70
2018-02-21T20:52:40.122Z,1.70
2018-02-21T20:55:08.293Z,1.70
2018-02-21T20:57:36.485Z,1.70
2018-02-21T21:00:04.668Z,1.70
2018-02-21T21:02:32.854Z,1.70
2018-02-21T21:05:01.039Z,1.80
2018-02-21T21:07:30.010Z,1.70
2018-02-21T21:09:58.225Z,1.70
2018-02-21T21:12:26.395Z,1.80
2018-02-21T21:14:55.379Z,1.70
2018-02-21T21:17:24.323Z,1.80
2018-02-21T21:19:52.521Z,1.70
2018-02-21T21:22:20.700Z,1.70
2018-02-21T21:24:48.912Z,1.80
2018-02-21T21:27:17.095Z,1.80
2018-02-21T21:29:45.307Z,1.80
2018-02-21T21:32:13.486Z,1.80
2018-02-21T21:34:41.656Z,1.80
2018-02-21T21:37:09.853Z,1.90
2018-02-21T21:39:38.018Z,1.90
2018-02-21T21:42:06.200Z,1.90
2018-02-21T21:44:34.380Z,1.90
2018-02-21T21:47:03.335Z,1.80
2018-02-21T21:49:32.869Z,1.80
2018-02-21T21:51:59.688Z,1.90
2018-02-21T21:54:27.863Z,1.90
2018-02-21T21:56:56.062Z,1.90
2018-02-21T21:59:24.245Z,1.80
2018-02-21T22:01:52.418Z,1.80
2018-02-21T22:04:20.604Z,1.80
2018-02-21T22:06:49.549Z,1.80
2018-02-21T22:09:17.713Z,1.70
2018-02-21T22:11:45.885Z,1.80
2018-02-21T22:14:14.070Z,1.70
2018-02-21T22:16:42.248Z,1.70
2018-02-21T22:19:10.456Z,1.70
2018-02-21T22:21:38.636Z,1.70
2018-02-21T22:24:06.804Z,1.70
2018-02-21T22:26:34.981Z,1.80
2018-02-21T22:29:03.161Z,1.80
2018-02-21T22:31:31.357Z,1.80
2018-02-21T22:33:59.522Z,1.80
2018-02-21T22:36:28.473Z,1.80
2018-02-21T22:38:56.635Z,1.80
2018-02-21T22:41:24.819Z,1.80
2018-02-21T22:43:52.986Z,1.80
2018-02-21T22:46:21.156Z,1.80
2018-02-21T22:48:49.325Z,1.80
2018-02-21T22:51:17.485Z,1.80
2018-02-21T22:53:45.666Z,1.80
2018-02-21T22:56:13.839Z,1.90
2018-02-21T22:58:42.009Z,1.80
2018-02-21T23:01:10.184Z,1.90
2018-02-21T23:03:38.355Z,1.90
2018-02-21T23:06:06.535Z,1.90
2018-02-21T23:08:34.738Z,1.90
2018-02-21T23:11:02.908Z,1.90
2018-02-21T23:13:32.075Z,1.90
2018-02-21T23:16:00.277Z,1.90
2018-02-21T23:18:28.464Z,1.90
2018-02-21T23:20:56.677Z,1.90
2018-02-21T23:23:25.663Z,1.90
2018-02-21T23:25:54.661Z,1.90
2018-02-21T23:28:23.602Z,1.80
2018-02-21T23:30:51.781Z,1.80
2018-02-21T23:33:19.975Z,1.70
2018-02-21T23:35:48.150Z,1.50
2018-02-21T23:38:16.335Z,1.40
2018-02-21T23:40:44.514Z,1.40
2018-02-21T23:43:12.694Z,1.40
2018-02-21T23:45:41.643Z,1.50
2018-02-21T23:48:09.862Z,1.40
2018-02-21T23:50:38.064Z,1.40
2018-02-21T23:53:06.243Z,1.50
2018-02-21T23:55:34.410Z,1.50
2018-02-21T23:58:03.374Z,1.60
